sensor_id;sensor_type;location;lat;lon;timestamp;pressure;altitude;pressure_sealevel;temperature;humidity
17764;BME280;22245;52.832;13.816;2023-03-04T00:02:58;101550.38;;;3.25;76.80
17764;BME280;22245;52.832;13.816;2023-03-04T00:06:21;101560.13;;;3.23;76.40
17764;BME280;22245;52.832;13.816;2023-03-04T00:09:43;101560.13;;;3.23;76.18
17764;BME280;22245;52.832;13.816;2023-03-04T00:13:05;101560.91;;;3.25;76.13
17764;BME280;22245;52.832;13.816;2023-03-04T00:16:26;101559.28;;;3.23;76.46
17764;BME280;22245;52.832;13.816;2023-03-04T00:19:49;101552.47;;;3.17;76.78
17764;BME280;22245;52.832;13.816;2023-03-04T00:23:12;101556.06;;;3.14;76.92
17764;BME280;22245;52.832;13.816;2023-03-04T00:26:34;101553.56;;;3.11;77.43
17764;BME280;22245;52.832;13.816;2023-03-04T00:29:55;101568.53;;;3.11;76.86
17764;BME280;22245;52.832;13.816;2023-03-04T00:33:17;101556.28;;;3.10;77.13
17764;BME280;22245;52.832;13.816;2023-03-04T00:36:39;101541.59;;;3.04;77.79
17764;BME280;22245;52.832;13.816;2023-03-04T00:40:05;101530.25;;;3.02;77.28
17764;BME280;22245;52.832;13.816;2023-03-04T00:43:27;101532.91;;;3.02;77.10
17764;BME280;22245;52.832;13.816;2023-03-04T00:46:50;101540.75;;;3.03;76.87
17764;BME280;22245;52.832;13.816;2023-03-04T00:50:12;101547.59;;;3.08;76.71
17764;BME280;22245;52.832;13.816;2023-03-04T00:53:34;101533.75;;;3.02;76.84
17764;BME280;22245;52.832;13.816;2023-03-04T00:56:57;101536.38;;;3.02;77.01
17764;BME280;22245;52.832;13.816;2023-03-04T01:00:20;101541.75;;;2.99;77.02
17764;BME280;22245;52.832;13.816;2023-03-04T01:03:43;101534.91;;;2.95;76.63
17764;BME280;22245;52.832;13.816;2023-03-04T01:07:05;101535.00;;;2.94;76.59
17764;BME280;22245;52.832;13.816;2023-03-04T01:10:27;101526.09;;;2.96;76.79
17764;BME280;22245;52.832;13.816;2023-03-04T01:13:50;101527.88;;;2.96;76.88
17764;BME280;22245;52.832;13.816;2023-03-04T01:17:11;101522.41;;;3.00;76.59
17764;BME280;22245;52.832;13.816;2023-03-04T01:20:34;101526.19;;;2.95;76.59
17764;BME280;22245;52.832;13.816;2023-03-04T01:23:55;101525.31;;;2.94;77.27
17764;BME280;22245;52.832;13.816;2023-03-04T01:27:17;101524.47;;;2.94;76.85
17764;BME280;22245;52.832;13.816;2023-03-04T01:30:41;101513.06;;;2.93;76.87
17764;BME280;22245;52.832;13.816;2023-03-04T01:34:03;101516.50;;;2.95;77.30
17764;BME280;22245;52.832;13.816;2023-03-04T01:37:25;101503.22;;;2.98;77.34
17764;BME280;22245;52.832;13.816;2023-03-04T01:40:46;101509.34;;;2.99;77.33
17764;BME280;22245;52.832;13.816;2023-03-04T01:44:09;101485.56;;;3.00;77.58
17764;BME280;22245;52.832;13.816;2023-03-04T01:47:33;101491.63;;;3.02;77.74
17764;BME280;22245;52.832;13.816;2023-03-04T01:50:55;101493.25;;;3.07;77.29
17764;BME280;22245;52.832;13.816;2023-03-04T01:54:20;101492.97;;;3.13;77.16
17764;BME280;22245;52.832;13.816;2023-03-04T01:57:42;101489.44;;;3.14;77.91
17764;BME280;22245;52.832;13.816;2023-03-04T02:01:04;101471.66;;;3.19;77.76
17764;BME280;22245;52.832;13.816;2023-03-04T02:04:30;101470.56;;;3.25;77.47
17764;BME280;22245;52.832;13.816;2023-03-04T02:07:54;101461.59;;;3.29;76.80
17764;BME280;22245;52.832;13.816;2023-03-04T02:11:16;101462.44;;;3.29;77.32
17764;BME280;22245;52.832;13.816;2023-03-04T02:14:38;101457.91;;;3.33;77.25
17764;BME280;22245;52.832;13.816;2023-03-04T02:18:01;101459.69;;;3.32;77.76
17764;BME280;22245;52.832;13.816;2023-03-04T02:21:25;101444.66;;;3.35;77.32
17764;BME280;22245;52.832;13.816;2023-03-04T02:24:53;101443.69;;;3.37;77.47
17764;BME280;22245;52.832;13.816;2023-03-04T02:28:17;101433.16;;;3.37;77.90
17764;BME280;22245;52.832;13.816;2023-03-04T02:31:40;101439.22;;;3.39;77.58
17764;BME280;22245;52.832;13.816;2023-03-04T02:35:05;101437.31;;;3.43;77.40
17764;BME280;22245;52.832;13.816;2023-03-04T02:38:27;101433.66;;;3.45;77.71
17764;BME280;22245;52.832;13.816;2023-03-04T02:41:51;101418.66;;;3.47;77.41
17764;BME280;22245;52.832;13.816;2023-03-04T02:45:34;101430.97;;;3.47;77.55
17764;BME280;22245;52.832;13.816;2023-03-04T02:48:58;101422.06;;;3.50;77.47
17764;BME280;22245;52.832;13.816;2023-03-04T02:52:22;101414.25;;;3.48;77.52
17764;BME280;22245;52.832;13.816;2023-03-04T02:55:45;101400.22;;;3.47;77.45
17764;BME280;22245;52.832;13.816;2023-03-04T02:59:07;101399.25;;;3.50;78.02
17764;BME280;22245;52.832;13.816;2023-03-04T03:02:31;101387.00;;;3.49;78.21
17764;BME280;22245;52.832;13.816;2023-03-04T03:05:53;101391.19;;;3.53;77.86
17764;BME280;22245;52.832;13.816;2023-03-04T03:09:15;101391.09;;;3.55;77.68
17764;BME280;22245;52.832;13.816;2023-03-04T03:12:37;101386.56;;;3.58;77.83
17764;BME280;22245;52.832;13.816;2023-03-04T03:16:00;101388.28;;;3.59;77.92
17764;BME280;22245;52.832;13.816;2023-03-04T03:19:23;101382.03;;;3.62;77.77
17764;BME280;22245;52.832;13.816;2023-03-04T03:22:47;101383.66;;;3.65;77.45
17764;BME280;22245;52.832;13.816;2023-03-04T03:26:08;101376.53;;;3.67;77.60
17764;BME280;22245;52.832;13.816;2023-03-04T03:29:30;101375.69;;;3.66;77.58
17764;BME280;22245;52.832;13.816;2023-03-04T03:32:52;101379.09;;;3.68;78.16
17764;BME280;22245;52.832;13.816;2023-03-04T03:36:15;101370.34;;;3.68;78.39
17764;BME280;22245;52.832;13.816;2023-03-04T03:39:37;101372.81;;;3.71;77.73
17764;BME280;22245;52.832;13.816;2023-03-04T03:42:58;101373.59;;;3.73;78.03
17764;BME280;22245;52.832;13.816;2023-03-04T03:46:20;101365.66;;;3.74;78.17
17764;BME280;22245;52.832;13.816;2023-03-04T03:49:42;101367.34;;;3.75;78.26
17764;BME280;22245;52.832;13.816;2023-03-04T03:53:06;101352.19;;;3.81;77.96
17764;BME280;22245;52.832;13.816;2023-03-04T03:56:28;101352.91;;;3.84;78.13
17764;BME280;22245;52.832;13.816;2023-03-04T03:59:49;101345.63;;;3.89;77.75
17764;BME280;22245;52.832;13.816;2023-03-04T04:03:13;101336.81;;;3.90;77.54
17764;BME280;22245;52.832;13.816;2023-03-04T04:06:36;101342.06;;;3.90;77.87
17764;BME280;22245;52.832;13.816;2023-03-04T04:09:59;101347.34;;;3.90;77.92
17764;BME280;22245;52.832;13.816;2023-03-04T04:13:20;101342.75;;;3.94;77.78
17764;BME280;22245;52.832;13.816;2023-03-04T04:16:42;101344.56;;;3.94;78.04
17764;BME280;22245;52.832;13.816;2023-03-04T04:20:05;101336.56;;;3.95;78.15
17764;BME280;22245;52.832;13.816;2023-03-04T04:23:27;101340.13;;;3.94;78.33
17764;BME280;22245;52.832;13.816;2023-03-04T04:26:50;101336.56;;;3.95;78.59
17764;BME280;22245;52.832;13.816;2023-03-04T04:30:12;101337.34;;;3.97;78.59
17764;BME280;22245;52.832;13.816;2023-03-04T04:33:34;101331.06;;;4.00;78.34
17764;BME280;22245;52.832;13.816;2023-03-04T04:36:56;101339.75;;;4.02;78.18
17764;BME280;22245;52.832;13.816;2023-03-04T04:40:19;101339.63;;;4.05;78.71
17764;BME280;22245;52.832;13.816;2023-03-04T04:43:42;101334.28;;;4.07;77.81
17764;BME280;22245;52.832;13.816;2023-03-04T04:47:04;101331.56;;;4.08;78.69
17764;BME280;22245;52.832;13.816;2023-03-04T04:50:26;101335.91;;;4.09;78.47
17764;BME280;22245;52.832;13.816;2023-03-04T04:53:51;101337.38;;;4.15;78.31
17764;BME280;22245;52.832;13.816;2023-03-04T04:57:13;101324.13;;;4.16;78.29
17764;BME280;22245;52.832;13.816;2023-03-04T05:00:36;101334.53;;;4.19;78.13
17764;BME280;22245;52.832;13.816;2023-03-04T05:03:58;101323.06;;;4.20;78.11
17764;BME280;22245;52.832;13.816;2023-03-04T05:07:20;101319.34;;;4.25;77.60
17764;BME280;22245;52.832;13.816;2023-03-04T05:10:42;101323.69;;;4.26;77.99
17764;BME280;22245;52.832;13.816;2023-03-04T05:14:04;101314.84;;;4.27;78.11
17764;BME280;22245;52.832;13.816;2023-03-04T05:17:27;101316.56;;;4.28;78.26
17764;BME280;22245;52.832;13.816;2023-03-04T05:20:49;101323.59;;;4.27;78.68
17764;BME280;22245;52.832;13.816;2023-03-04T05:24:12;101315.63;;;4.29;78.70
17764;BME280;22245;52.832;13.816;2023-03-04T05:27:34;101322.66;;;4.28;79.03
17764;BME280;22245;52.832;13.816;2023-03-04T05:30:56;101318.16;;;4.30;79.36
17764;BME280;22245;52.832;13.816;2023-03-04T05:34:19;101315.63;;;4.29;79.02
17764;BME280;22245;52.832;13.816;2023-03-04T05:37:40;101312.91;;;4.30;78.99
17764;BME280;22245;52.832;13.816;2023-03-04T05:41:04;101313.00;;;4.29;79.69
17764;BME280;22245;52.832;13.816;2023-03-04T05:44:26;101317.19;;;4.33;79.88
17764;BME280;22245;52.832;13.816;2023-03-04T05:47:48;101324.16;;;4.34;80.09
17764;BME280;22245;52.832;13.816;2023-03-04T05:51:11;101325.81;;;4.37;80.40
17764;BME280;22245;52.832;13.816;2023-03-04T05:54:32;101318.88;;;4.34;80.44
17764;BME280;22245;52.832;13.816;2023-03-04T05:57:54;101316.25;;;4.34;81.06
17764;BME280;22245;52.832;13.816;2023-03-04T06:01:17;101320.44;;;4.38;80.78
17764;BME280;22245;52.832;13.816;2023-03-04T06:04:38;101315.88;;;4.42;81.34
17764;BME280;22245;52.832;13.816;2023-03-04T06:08:01;101322.00;;;4.42;81.12
17764;BME280;22245;52.832;13.816;2023-03-04T06:11:23;101322.00;;;4.42;81.60
17764;BME280;22245;52.832;13.816;2023-03-04T06:14:45;101310.59;;;4.42;82.22
17764;BME280;22245;52.832;13.816;2023-03-04T06:18:07;101328.19;;;4.41;82.12
17764;BME280;22245;52.832;13.816;2023-03-04T06:21:31;101328.28;;;4.40;83.13
17764;BME280;22245;52.832;13.816;2023-03-04T06:24:54;101319.50;;;4.39;83.13
17764;BME280;22245;52.832;13.816;2023-03-04T06:28:15;101322.84;;;4.43;83.23
17764;BME280;22245;52.832;13.816;2023-03-04T06:31:37;101315.78;;;4.43;83.62
17764;BME280;22245;52.832;13.816;2023-03-04T06:35:01;101326.31;;;4.43;83.97
17764;BME280;22245;52.832;13.816;2023-03-04T06:38:23;101333.41;;;4.43;84.15
17764;BME280;22245;52.832;13.816;2023-03-04T06:41:46;101325.25;;;4.47;84.88
17764;BME280;22245;52.832;13.816;2023-03-04T06:45:09;101323.53;;;4.46;84.00
17764;BME280;22245;52.832;13.816;2023-03-04T06:48:30;101335.78;;;4.47;84.63
17764;BME280;22245;52.832;13.816;2023-03-04T06:51:52;101330.34;;;4.51;84.37
17764;BME280;22245;52.832;13.816;2023-03-04T06:55:14;101331.13;;;4.53;84.63
17764;BME280;22245;52.832;13.816;2023-03-04T06:58:37;101328.38;;;4.56;84.54
17764;BME280;22245;52.832;13.816;2023-03-04T07:02:01;101333.66;;;4.56;84.30
17764;BME280;22245;52.832;13.816;2023-03-04T07:05:23;101345.91;;;4.57;84.64
17764;BME280;22245;52.832;13.816;2023-03-04T07:08:45;101338.28;;;4.51;84.67
17764;BME280;22245;52.832;13.816;2023-03-04T07:12:07;101335.56;;;4.52;84.65
17764;BME280;22245;52.832;13.816;2023-03-04T07:15:30;101340.63;;;4.57;84.61
17764;BME280;22245;52.832;13.816;2023-03-04T07:18:52;101331.78;;;4.58;84.34
17764;BME280;22245;52.832;13.816;2023-03-04T07:22:14;101345.66;;;4.61;84.00
17764;BME280;22245;52.832;13.816;2023-03-04T07:25:36;101347.19;;;4.66;84.03
17764;BME280;22245;52.832;13.816;2023-03-04T07:28:57;101342.69;;;4.68;83.84
17764;BME280;22245;52.832;13.816;2023-03-04T07:32:21;101350.63;;;4.68;84.22
17764;BME280;22245;52.832;13.816;2023-03-04T07:35:43;101347.13;;;4.67;84.18
17764;BME280;22245;52.832;13.816;2023-03-04T07:39:05;101361.16;;;4.68;84.24
17764;BME280;22245;52.832;13.816;2023-03-04T07:42:27;101353.19;;;4.69;83.67
17764;BME280;22245;52.832;13.816;2023-03-04T07:46:00;101351.47;;;4.68;82.85
17764;BME280;22245;52.832;13.816;2023-03-04T07:49:23;101353.19;;;4.69;81.82
17764;BME280;22245;52.832;13.816;2023-03-04T07:52:47;101347.81;;;4.71;81.98
17764;BME280;22245;52.832;13.816;2023-03-04T07:56:11;101342.16;;;4.78;81.39
17764;BME280;22245;52.832;13.816;2023-03-04T07:59:34;101343.81;;;4.81;81.35
17764;BME280;22245;52.832;13.816;2023-03-04T08:02:56;101351.41;;;4.87;81.04
17764;BME280;22245;52.832;13.816;2023-03-04T08:06:20;101345.09;;;4.90;80.68
17764;BME280;22245;52.832;13.816;2023-03-04T08:09:41;101349.31;;;4.94;80.68
17764;BME280;22245;52.832;13.816;2023-03-04T08:13:03;101339.41;;;4.98;79.47
17764;BME280;22245;52.832;13.816;2023-03-04T08:16:25;101336.94;;;4.95;76.24
17764;BME280;22245;52.832;13.816;2023-03-04T08:19:47;101333.38;;;4.96;75.06
17764;BME280;22245;52.832;13.816;2023-03-04T08:23:10;101325.63;;;4.92;72.84
17764;BME280;22245;52.832;13.816;2023-03-04T08:26:35;101343.88;;;4.97;69.80
17764;BME280;22245;52.832;13.816;2023-03-04T08:30:00;101334.25;;;4.96;68.36
17764;BME280;22245;52.832;13.816;2023-03-04T08:33:22;101340.44;;;4.95;68.27
17764;BME280;22245;52.832;13.816;2023-03-04T08:36:44;101328.63;;;5.02;67.69
17764;BME280;22245;52.832;13.816;2023-03-04T08:40:08;101333.75;;;5.05;65.91
17764;BME280;22245;52.832;13.816;2023-03-04T08:43:31;101338.88;;;5.09;65.42
17764;BME280;22245;52.832;13.816;2023-03-04T08:46:54;101340.81;;;5.05;64.87
17764;BME280;22245;52.832;13.816;2023-03-04T08:50:15;101348.81;;;5.03;63.57
17764;BME280;22245;52.832;13.816;2023-03-04T08:53:38;101332.66;;;5.10;64.51
17764;BME280;22245;52.832;13.816;2023-03-04T08:57:02;101332.31;;;5.16;64.19
17764;BME280;22245;52.832;13.816;2023-03-04T09:00:24;101340.19;;;5.17;64.30
17764;BME280;22245;52.832;13.816;2023-03-04T09:03:45;101322.53;;;5.18;64.43
17764;BME280;22245;52.832;13.816;2023-03-04T09:07:07;101316.16;;;5.22;64.13
17764;BME280;22245;52.832;13.816;2023-03-04T09:10:29;101320.09;;;5.31;64.11
17764;BME280;22245;52.832;13.816;2023-03-04T09:13:52;101321.38;;;5.40;64.21
17764;BME280;22245;52.832;13.816;2023-03-04T09:17:14;101327.28;;;5.45;63.65
17764;BME280;22245;52.832;13.816;2023-03-04T09:20:36;101336.97;;;5.44;62.42
17764;BME280;22245;52.832;13.816;2023-03-04T09:23:58;101335.97;;;5.47;63.30
17764;BME280;22245;52.832;13.816;2023-03-04T09:27:20;101331.28;;;5.52;63.07
17764;BME280;22245;52.832;13.816;2023-03-04T09:30:44;101333.75;;;5.55;62.95
17764;BME280;22245;52.832;13.816;2023-03-04T09:34:06;101321.84;;;5.64;63.28
17764;BME280;22245;52.832;13.816;2023-03-04T09:37:27;101324.38;;;5.65;63.03
17764;BME280;22245;52.832;13.816;2023-03-04T09:40:49;101322.34;;;5.71;62.87
17764;BME280;22245;52.832;13.816;2023-03-04T09:44:20;101319.25;;;5.78;62.15
17764;BME280;22245;52.832;13.816;2023-03-04T09:47:45;101332.41;;;5.80;61.55
17764;BME280;22245;52.832;13.816;2023-03-04T09:51:18;101337.69;;;5.80;62.80
17764;BME280;22245;52.832;13.816;2023-03-04T09:54:57;101338.63;;;5.79;63.31
17764;BME280;22245;52.832;13.816;2023-03-04T09:58:33;101327.13;;;5.80;62.22
17764;BME280;22245;52.832;13.816;2023-03-04T10:02:06;101336.16;;;5.76;62.47
17764;BME280;22245;52.832;13.816;2023-03-04T10:05:39;101354.66;;;5.76;62.59
17764;BME280;22245;52.832;13.816;2023-03-04T10:09:05;101337.53;;;5.83;62.18
17764;BME280;22245;52.832;13.816;2023-03-04T10:12:33;101329.84;;;5.78;61.80
17764;BME280;22245;52.832;13.816;2023-03-04T10:16:00;101345.69;;;5.78;62.06
17764;BME280;22245;52.832;13.816;2023-03-04T10:19:36;101334.94;;;5.82;61.44
17764;BME280;22245;52.832;13.816;2023-03-04T10:23:08;101351.91;;;5.77;61.22
17764;BME280;22245;52.832;13.816;2023-03-04T10:26:31;101348.16;;;5.82;61.31
17764;BME280;22245;52.832;13.816;2023-03-04T10:29:53;101337.41;;;5.85;60.81
17764;BME280;22245;52.832;13.816;2023-03-04T10:33:17;101343.22;;;5.91;60.43
17764;BME280;22245;52.832;13.816;2023-03-04T10:36:46;101344.88;;;5.94;60.35
17764;BME280;22245;52.832;13.816;2023-03-04T10:40:20;101350.81;;;5.98;60.23
17764;BME280;22245;52.832;13.816;2023-03-04T10:43:42;101351.75;;;5.97;59.67
17764;BME280;22245;52.832;13.816;2023-03-04T10:47:10;101359.84;;;5.93;59.12
17764;BME280;22245;52.832;13.816;2023-03-04T10:50:33;101359.69;;;5.97;59.36
17764;BME280;22245;52.832;13.816;2023-03-04T10:53:56;101367.72;;;5.95;59.20
17764;BME280;22245;52.832;13.816;2023-03-04T10:57:23;101361.91;;;5.88;59.45
17764;BME280;22245;52.832;13.816;2023-03-04T11:00:58;101361.91;;;5.88;59.42
17764;BME280;22245;52.832;13.816;2023-03-04T11:04:23;101354.31;;;5.82;59.86
17764;BME280;22245;52.832;13.816;2023-03-04T11:07:48;101360.03;;;5.90;60.13
17764;BME280;22245;52.832;13.816;2023-03-04T11:11:24;101353.63;;;5.94;59.84
17764;BME280;22245;52.832;13.816;2023-03-04T11:14:51;101354.06;;;6.03;59.58
17764;BME280;22245;52.832;13.816;2023-03-04T11:18:13;101362.78;;;6.05;59.58
17764;BME280;22245;52.832;13.816;2023-03-04T11:21:38;101350.41;;;6.05;59.36
17764;BME280;22245;52.832;13.816;2023-03-04T11:25:02;101361.69;;;6.09;59.22
17764;BME280;22245;52.832;13.816;2023-03-04T11:28:29;101359.63;;;6.14;58.71
17764;BME280;22245;52.832;13.816;2023-03-04T11:32:03;101361.75;;;6.23;58.81
17764;BME280;22245;52.832;13.816;2023-03-04T11:35:30;101354.00;;;6.20;59.17
17764;BME280;22245;52.832;13.816;2023-03-04T11:38:55;101367.13;;;6.22;59.26
17764;BME280;22245;52.832;13.816;2023-03-04T11:42:24;101357.28;;;6.24;59.13
17764;BME280;22245;52.832;13.816;2023-03-04T11:46:10;101362.75;;;6.21;58.63
17764;BME280;22245;52.832;13.816;2023-03-04T11:50:02;101354.94;;;6.19;59.06
17764;BME280;22245;52.832;13.816;2023-03-04T11:53:39;101352.53;;;6.15;58.76
17764;BME280;22245;52.832;13.816;2023-03-04T11:57:08;101358.41;;;6.20;59.24
17764;BME280;22245;52.832;13.816;2023-03-04T12:00:36;101357.56;;;6.19;59.44
17764;BME280;22245;52.832;13.816;2023-03-04T12:04:09;101367.13;;;6.22;58.70
17764;BME280;22245;52.832;13.816;2023-03-04T12:07:46;101354.66;;;6.24;57.93
17764;BME280;22245;52.832;13.816;2023-03-04T12:11:18;101352.19;;;6.21;57.86
17764;BME280;22245;52.832;13.816;2023-03-04T12:14:44;101349.28;;;6.26;57.54
17764;BME280;22245;52.832;13.816;2023-03-04T12:18:20;101366.34;;;6.20;57.33
17764;BME280;22245;52.832;13.816;2023-03-04T12:22:02;101353.13;;;6.20;57.26
17764;BME280;22245;52.832;13.816;2023-03-04T12:25:36;101348.88;;;6.17;57.55
17764;BME280;22245;52.832;13.816;2023-03-04T12:29:03;101358.34;;;6.21;57.12
17764;BME280;22245;52.832;13.816;2023-03-04T12:32:35;101352.88;;;6.25;56.53
17764;BME280;22245;52.832;13.816;2023-03-04T12:36:09;101353.13;;;6.20;56.19
17764;BME280;22245;52.832;13.816;2023-03-04T12:39:38;101352.88;;;6.25;56.02
17764;BME280;22245;52.832;13.816;2023-03-04T12:43:08;101360.03;;;6.22;55.90
17764;BME280;22245;52.832;13.816;2023-03-04T12:46:45;101360.72;;;6.26;56.10
17764;BME280;22245;52.832;13.816;2023-03-04T12:50:25;101353.13;;;6.20;55.92
17764;BME280;22245;52.832;13.816;2023-03-04T12:53:56;101350.91;;;6.28;55.55
17764;BME280;22245;52.832;13.816;2023-03-04T12:57:23;101347.84;;;6.20;54.92
17764;BME280;22245;52.832;13.816;2023-03-04T13:00:55;101353.06;;;6.21;55.30
17764;BME280;22245;52.832;13.816;2023-03-04T13:04:21;101338.72;;;6.26;55.41
17764;BME280;22245;52.832;13.816;2023-03-04T13:07:53;101350.44;;;6.36;55.66
17764;BME280;22245;52.832;13.816;2023-03-04T13:11:51;101343.19;;;6.40;54.22
17764;BME280;22245;52.832;13.816;2023-03-04T13:15:28;101345.91;;;6.38;54.72
17764;BME280;22245;52.832;13.816;2023-03-04T13:18:51;101351.13;;;6.40;54.60
17764;BME280;22245;52.832;13.816;2023-03-04T13:22:28;101355.56;;;6.39;54.48
17764;BME280;22245;52.832;13.816;2023-03-04T13:26:15;101357.25;;;6.40;55.38
17764;BME280;22245;52.832;13.816;2023-03-04T13:29:38;101360.03;;;6.39;55.21
17764;BME280;22245;52.832;13.816;2023-03-04T13:37:25;101358.34;;;6.21;55.74
17764;BME280;22245;52.832;13.816;2023-03-04T13:41:06;101354.41;;;6.29;55.76
17764;BME280;22245;52.832;13.816;2023-03-04T13:44:56;101345.00;;;6.23;56.17
17764;BME280;22245;52.832;13.816;2023-03-04T13:48:30;101347.75;;;6.21;56.49
17764;BME280;22245;52.832;13.816;2023-03-04T13:51:52;101353.31;;;6.17;56.48
17764;BME280;22245;52.832;13.816;2023-03-04T13:55:40;101352.28;;;6.19;56.46
17764;BME280;22245;52.832;13.816;2023-03-04T13:59:27;101346.72;;;6.24;56.63
17764;BME280;22245;52.832;13.816;2023-03-04T14:02:50;101343.81;;;6.29;56.34
17764;BME280;22245;52.832;13.816;2023-03-04T14:06:18;101343.63;;;6.32;56.74
17764;BME280;22245;52.832;13.816;2023-03-04T14:09:52;101345.34;;;6.33;56.55
17764;BME280;22245;52.832;13.816;2023-03-04T14:13:16;101340.59;;;6.23;55.70
17764;BME280;22245;52.832;13.816;2023-03-04T14:16:39;101332.06;;;6.18;55.90
17764;BME280;22245;52.832;13.816;2023-03-04T14:20:22;101335.56;;;6.19;55.87
17764;BME280;22245;52.832;13.816;2023-03-04T14:23:45;101326.50;;;6.23;56.20
17764;BME280;22245;52.832;13.816;2023-03-04T14:27:11;101341.41;;;6.24;56.01
17764;BME280;22245;52.832;13.816;2023-03-04T14:30:34;101337.00;;;6.25;55.49
17764;BME280;22245;52.832;13.816;2023-03-04T14:34:03;101328.31;;;6.06;55.62
17764;BME280;22245;52.832;13.816;2023-03-04T14:37:26;101325.59;;;6.08;56.52
17764;BME280;22245;52.832;13.816;2023-03-04T14:40:51;101323.53;;;6.13;58.18
17764;BME280;22245;52.832;13.816;2023-03-04T14:44:22;101330.25;;;6.19;58.40
17764;BME280;22245;52.832;13.816;2023-03-04T14:47:52;101321.31;;;6.21;58.51
17764;BME280;22245;52.832;13.816;2023-03-04T14:51:28;101328.66;;;6.16;58.24
17764;BME280;22245;52.832;13.816;2023-03-04T14:54:59;101323.53;;;6.13;58.46
17764;BME280;22245;52.832;13.816;2023-03-04T14:58:23;101320.97;;;6.12;58.75
17764;BME280;22245;52.832;13.816;2023-03-04T15:01:46;101317.66;;;6.08;59.10
17764;BME280;22245;52.832;13.816;2023-03-04T15:05:14;101323.03;;;6.06;58.62
17764;BME280;22245;52.832;13.816;2023-03-04T15:08:42;101326.69;;;6.04;58.45
17764;BME280;22245;52.832;13.816;2023-03-04T15:12:05;101316.38;;;5.99;58.97
17764;BME280;22245;52.832;13.816;2023-03-04T15:15:39;101329.66;;;5.98;58.67
17764;BME280;22245;52.832;13.816;2023-03-04T15:19:02;101323.44;;;5.99;59.37
17764;BME280;22245;52.832;13.816;2023-03-04T15:22:26;101319.84;;;6.00;59.11
17764;BME280;22245;52.832;13.816;2023-03-04T15:25:50;101312.09;;;5.97;59.59
17764;BME280;22245;52.832;13.816;2023-03-04T15:29:14;101319.09;;;5.98;59.53
17764;BME280;22245;52.832;13.816;2023-03-04T15:32:36;101312.19;;;5.95;59.31
17764;BME280;22245;52.832;13.816;2023-03-04T15:36:00;101325.25;;;5.98;59.04
17764;BME280;22245;52.832;13.816;2023-03-04T15:39:24;101321.84;;;5.80;59.07
17764;BME280;22245;52.832;13.816;2023-03-04T15:42:47;101337.53;;;5.83;59.19
17764;BME280;22245;52.832;13.816;2023-03-04T15:46:09;101341.78;;;5.70;60.64
17764;BME280;22245;52.832;13.816;2023-03-04T15:49:31;101347.22;;;5.67;62.54
17764;BME280;22245;52.832;13.816;2023-03-04T15:52:55;101366.94;;;5.61;63.37
17764;BME280;22245;52.832;13.816;2023-03-04T15:56:28;101367.44;;;5.52;63.07
17764;BME280;22245;52.832;13.816;2023-03-04T15:59:55;101368.00;;;5.41;61.85
17764;BME280;22245;52.832;13.816;2023-03-04T16:03:19;101361.63;;;5.45;62.26
17764;BME280;22245;52.832;13.816;2023-03-04T16:06:42;101366.19;;;5.41;61.62
17764;BME280;22245;52.832;13.816;2023-03-04T16:10:07;101361.50;;;5.30;61.20
17764;BME280;22245;52.832;13.816;2023-03-04T16:13:34;101365.06;;;5.29;60.96
17764;BME280;22245;52.832;13.816;2023-03-04T16:16:55;101359.00;;;5.27;60.63
17764;BME280;22245;52.832;13.816;2023-03-04T16:20:19;101374.41;;;5.19;59.31
17764;BME280;22245;52.832;13.816;2023-03-04T16:23:43;101373.91;;;5.12;59.14
17764;BME280;22245;52.832;13.816;2023-03-04T16:27:09;101387.16;;;5.11;57.85
17764;BME280;22245;52.832;13.816;2023-03-04T16:30:32;101380.66;;;5.00;57.36
17764;BME280;22245;52.832;13.816;2023-03-04T16:33:54;101374.66;;;4.97;57.01
17764;BME280;22245;52.832;13.816;2023-03-04T16:37:18;101381.66;;;4.98;57.34
17764;BME280;22245;52.832;13.816;2023-03-04T16:40:40;101379.19;;;4.95;56.93
17764;BME280;22245;52.832;13.816;2023-03-04T16:44:02;101370.16;;;4.99;57.00
17764;BME280;22245;52.832;13.816;2023-03-04T16:47:27;101380.72;;;4.99;56.34
17764;BME280;22245;52.832;13.816;2023-03-04T16:50:48;101382.44;;;5.00;55.53
17764;BME280;22245;52.832;13.816;2023-03-04T16:54:14;101387.81;;;4.98;55.68
17764;BME280;22245;52.832;13.816;2023-03-04T16:57:38;101386.09;;;4.97;55.51
17764;BME280;22245;52.832;13.816;2023-03-04T17:01:00;101381.66;;;4.98;55.47
17764;BME280;22245;52.832;13.816;2023-03-04T17:04:24;101387.81;;;4.98;55.52
17764;BME280;22245;52.832;13.816;2023-03-04T17:07:46;101389.50;;;4.99;55.25
17764;BME280;22245;52.832;13.816;2023-03-04T17:11:10;101397.44;;;4.99;55.33
17764;BME280;22245;52.832;13.816;2023-03-04T17:14:32;101392.06;;;5.01;55.64
17764;BME280;22245;52.832;13.816;2023-03-04T17:17:55;101401.63;;;5.03;56.13
17764;BME280;22245;52.832;13.816;2023-03-04T17:21:21;101402.41;;;5.05;55.68
17764;BME280;22245;52.832;13.816;2023-03-04T17:24:43;101412.94;;;5.05;55.54
17764;BME280;22245;52.832;13.816;2023-03-04T17:28:05;101411.31;;;5.03;55.59
17764;BME280;22245;52.832;13.816;2023-03-04T17:31:27;101416.53;;;5.04;56.23
17764;BME280;22245;52.832;13.816;2023-03-04T17:34:52;101415.75;;;5.02;56.26
17764;BME280;22245;52.832;13.816;2023-03-04T17:38:15;101415.66;;;5.04;55.93
17764;BME280;22245;52.832;13.816;2023-03-04T17:41:37;101416.69;;;5.01;56.48
17764;BME280;22245;52.832;13.816;2023-03-04T17:44:59;101408.06;;;4.98;56.75
17764;BME280;22245;52.832;13.816;2023-03-04T17:48:21;101412.50;;;4.97;56.78
17764;BME280;22245;52.832;13.816;2023-03-04T17:51:43;101411.56;;;4.98;56.96
17764;BME280;22245;52.832;13.816;2023-03-04T17:55:07;101417.63;;;5.00;56.76
17764;BME280;22245;52.832;13.816;2023-03-04T17:58:32;101414.97;;;5.00;56.76